createdAt,value
2022-08-31T00:01:05.958Z,7.25
2022-08-31T00:06:09.317Z,6.88
2022-08-31T00:11:14.445Z,10.77
2022-08-31T00:16:17.610Z,6.93
2022-08-31T00:21:23.237Z,11.75
2022-08-31T00:26:27.700Z,10.98
2022-08-31T00:31:30.576Z,7.75
2022-08-31T00:36:33.492Z,10.85
2022-08-31T00:41:39.373Z,8.57
2022-08-31T00:46:44.587Z,8.80
2022-08-31T00:51:52.827Z,5.82
2022-08-31T00:56:58.057Z,7.45
2022-08-31T01:02:00.984Z,7.32
2022-08-31T01:07:07.363Z,6.28
2022-08-31T01:12:13.197Z,8.38
2022-08-31T01:17:17.684Z,8.35
2022-08-31T01:22:27.832Z,9.20
2022-08-31T01:27:36.365Z,7.05
2022-08-31T01:32:39.756Z,6.50
2022-08-31T01:37:42.548Z,7.72
2022-08-31T01:42:47.418Z,8.23
2022-08-31T01:47:50.177Z,9.02
2022-08-31T01:52:53.082Z,8.07
2022-08-31T01:57:58.066Z,11.10
2022-08-31T02:03:03.181Z,10.27
2022-08-31T02:08:08.363Z,7.65
2022-08-31T02:13:13.013Z,7.13
2022-08-31T02:23:21.430Z,9.30
2022-08-31T02:28:26.013Z,9.73
2022-08-31T02:33:28.825Z,9.63
2022-08-31T02:38:35.157Z,8.30
2022-08-31T02:43:39.469Z,8.13
2022-08-31T02:48:42.209Z,8.57
2022-08-31T02:53:45.500Z,10.38
2022-08-31T02:58:54.678Z,7.88
2022-08-31T03:03:58.518Z,10.27
2022-08-31T03:09:01.307Z,8.82
2022-08-31T03:14:05.575Z,9.07
2022-08-31T03:19:09.079Z,8.70
2022-08-31T03:24:11.855Z,11.27
2022-08-31T03:29:16.012Z,8.98
2022-08-31T03:34:18.763Z,5.87
2022-08-31T03:39:21.531Z,6.50
2022-08-31T03:44:25.653Z,7.53
2022-08-31T03:49:28.370Z,8.00
2022-08-31T03:54:31.510Z,6.03
2022-08-31T03:59:35.676Z,11.32
2022-08-31T04:04:38.455Z,9.27
2022-08-31T04:09:41.208Z,9.18
2022-08-31T04:14:45.442Z,6.00
2022-08-31T04:19:48.174Z,5.65
2022-08-31T04:24:51.001Z,6.82
2022-08-31T04:29:55.133Z,5.63
2022-08-31T04:34:58.071Z,6.50
2022-08-31T04:40:01.466Z,11.00
2022-08-31T04:45:07.250Z,6.83
2022-08-31T04:50:11.330Z,8.93
2022-08-31T04:55:14.580Z,12.33
2022-08-31T05:00:19.030Z,11.25
2022-08-31T05:05:21.944Z,8.15
2022-08-31T05:10:24.772Z,7.15
2022-08-31T05:15:28.949Z,10.48
2022-08-31T05:20:31.714Z,7.97
2022-08-31T05:25:34.708Z,6.35
2022-08-31T05:30:38.915Z,8.48
2022-08-31T05:35:41.701Z,10.75
2022-08-31T05:40:44.543Z,10.38
2022-08-31T05:45:48.704Z,10.93
2022-08-31T05:50:51.792Z,11.20
2022-08-31T05:56:00.356Z,11.10
2022-08-31T06:01:05.109Z,12.20
2022-08-31T06:11:17.629Z,8.52
2022-08-31T06:16:22.267Z,8.30
2022-08-31T06:26:30.779Z,9.40
2022-08-31T06:31:37.967Z,8.27
2022-08-31T06:36:41.046Z,9.77
2022-08-31T06:46:49.686Z,8.18
2022-08-31T06:51:52.636Z,7.57
2022-08-31T06:56:55.461Z,7.72
2022-08-31T07:02:00.937Z,7.63
2022-08-31T07:07:05.736Z,7.13
2022-08-31T07:17:12.913Z,8.35
2022-08-31T07:22:15.725Z,8.77
2022-08-31T07:27:18.636Z,11.60
2022-08-31T07:32:22.926Z,7.00
2022-08-31T07:37:42.924Z,6.90
2022-08-31T07:42:46.841Z,7.15
2022-08-31T07:47:51.709Z,6.93
2022-08-31T07:57:59.041Z,5.57
2022-08-31T08:03:07.375Z,6.50
2022-08-31T08:08:13.851Z,5.95
2022-08-31T08:13:19.608Z,5.35
2022-08-31T08:18:23.839Z,4.40
2022-08-31T08:23:28.539Z,5.43
2022-08-31T08:28:40.844Z,4.57
2022-08-31T08:33:46.493Z,7.13
2022-08-31T08:38:51.793Z,6.03
2022-08-31T08:43:57.294Z,4.32
2022-08-31T08:49:10.493Z,4.35
2022-08-31T08:54:15.839Z,4.05
2022-08-31T08:59:20.237Z,4.85
2022-08-31T09:04:41.213Z,5.18
2022-08-31T09:09:49.733Z,4.97
2022-08-31T09:15:36.483Z,3.85
2022-08-31T09:20:41.337Z,4.10
2022-08-31T09:25:52.427Z,4.70
2022-08-31T09:30:56.092Z,4.28
2022-08-31T09:41:35.641Z,2.92
2022-08-31T09:46:39.322Z,3.55
2022-08-31T09:51:42.087Z,3.63
2022-08-31T09:56:58.392Z,4.40
2022-08-31T10:02:02.555Z,4.57
2022-08-31T10:07:30.786Z,3.05
2022-08-31T10:17:49.019Z,3.88
2022-08-31T10:22:57.737Z,2.72
2022-08-31T10:28:08.419Z,5.20
2022-08-31T10:33:15.740Z,3.10
2022-08-31T10:38:26.142Z,2.83
2022-08-31T10:43:34.597Z,2.63
2022-08-31T10:48:41.106Z,3.08
2022-08-31T10:53:53.629Z,2.97
2022-08-31T10:59:14.118Z,2.85
2022-08-31T11:04:39.902Z,2.88
2022-08-31T11:09:50.033Z,2.40
2022-08-31T11:15:29.449Z,2.63
2022-08-31T11:20:52.091Z,2.60
2022-08-31T11:26:45.189Z,3.35
2022-08-31T11:31:51.012Z,2.88
2022-08-31T11:36:55.629Z,3.22
2022-08-31T11:41:59.166Z,2.85
2022-08-31T11:47:08.290Z,2.78
2022-08-31T11:52:38.687Z,4.30
2022-08-31T11:58:33.641Z,2.72
2022-08-31T12:03:53.776Z,3.90
2022-08-31T12:09:18.201Z,3.15
2022-08-31T12:14:33.186Z,3.13
2022-08-31T12:20:01.742Z,3.10
2022-08-31T12:25:14.216Z,3.30
2022-08-31T12:30:20.718Z,3.65
2022-08-31T12:35:26.209Z,3.88
2022-08-31T12:40:30.562Z,2.42
2022-08-31T12:46:08.769Z,3.53
2022-08-31T12:51:21.748Z,3.05
2022-08-31T12:56:31.753Z,2.65
2022-08-31T13:01:42.582Z,5.45
2022-08-31T13:06:48.348Z,2.88
2022-08-31T13:11:53.810Z,2.83
2022-08-31T13:17:04.318Z,3.30
2022-08-31T13:22:17.063Z,3.13
2022-08-31T13:27:21.725Z,3.67
2022-08-31T13:32:33.643Z,2.45
2022-08-31T13:37:40.506Z,2.88
2022-08-31T13:42:45.647Z,3.08
2022-08-31T13:47:57.223Z,2.90
2022-08-31T13:53:26.001Z,2.80
2022-08-31T13:58:29.529Z,2.80
2022-08-31T14:03:34.940Z,3.05
2022-08-31T14:08:39.257Z,3.35
2022-08-31T14:13:49.107Z,3.72
2022-08-31T14:18:55.955Z,2.40
2022-08-31T14:24:04.038Z,2.83
2022-08-31T14:29:10.499Z,2.85
2022-08-31T14:34:26.985Z,2.50
2022-08-31T14:39:32.672Z,3.40
2022-08-31T14:44:39.261Z,2.83
2022-08-31T14:49:45.450Z,3.92
2022-08-31T14:54:49.752Z,3.55
2022-08-31T14:59:56.859Z,2.78
2022-08-31T15:05:06.272Z,2.75
2022-08-31T15:10:12.764Z,3.85
2022-08-31T15:15:20.764Z,5.60
2022-08-31T15:20:23.968Z,2.30
2022-08-31T15:25:28.802Z,2.20
2022-08-31T15:30:33.785Z,2.58
2022-08-31T15:35:41.811Z,2.10
2022-08-31T15:40:46.480Z,2.17
2022-08-31T15:45:49.355Z,2.60
2022-08-31T15:51:00.188Z,2.57
2022-08-31T15:56:06.593Z,1.95
2022-08-31T16:01:14.133Z,2.10
2022-08-31T16:06:16.983Z,2.05
2022-08-31T16:11:21.098Z,2.47
2022-08-31T16:16:23.858Z,2.85
2022-08-31T16:21:28.848Z,1.83
2022-08-31T16:26:35.925Z,2.17
2022-08-31T16:31:38.969Z,2.22
2022-08-31T16:36:42.829Z,2.00
2022-08-31T16:41:47.386Z,3.25
2022-08-31T16:46:50.209Z,2.78
2022-08-31T16:51:53.071Z,2.13
2022-08-31T16:56:57.871Z,3.27
2022-08-31T17:02:00.809Z,2.60
2022-08-31T17:14:46.778Z,2.30
2022-08-31T17:19:52.217Z,2.63
2022-08-31T17:24:57.723Z,1.88
2022-08-31T17:30:05.819Z,2.47
2022-08-31T17:35:09.596Z,2.05
2022-08-31T17:40:14.269Z,2.50
2022-08-31T17:45:21.211Z,1.83
2022-08-31T17:50:23.969Z,4.10
2022-08-31T17:55:26.727Z,3.15
2022-08-31T18:00:32.604Z,3.70
2022-08-31T18:05:35.415Z,3.28
2022-08-31T18:10:38.889Z,2.30
2022-08-31T18:15:43.553Z,2.20
2022-08-31T18:20:46.312Z,2.33
2022-08-31T18:25:49.770Z,3.78
2022-08-31T18:30:53.876Z,3.83
2022-08-31T18:35:56.725Z,3.45
2022-08-31T18:41:20.987Z,3.53
2022-08-31T18:46:26.734Z,2.50
2022-08-31T18:51:29.805Z,2.50
2022-08-31T18:56:33.259Z,2.67
2022-08-31T19:01:37.770Z,2.38
2022-08-31T19:06:42.316Z,2.92
2022-08-31T19:17:01.282Z,2.80
2022-08-31T19:22:06.884Z,4.63
2022-08-31T19:27:10.607Z,2.65
2022-08-31T19:32:14.858Z,3.37
2022-08-31T19:37:17.914Z,3.00
2022-08-31T19:42:39.732Z,4.20
2022-08-31T19:47:46.712Z,5.28
2022-08-31T19:52:51.829Z,3.22
2022-08-31T19:57:54.708Z,2.70
2022-08-31T20:02:59.649Z,2.80
2022-08-31T20:08:02.541Z,4.57
2022-08-31T20:13:06.109Z,11.20
2022-08-31T20:18:12.584Z,3.55
2022-08-31T20:23:17.295Z,2.88
2022-08-31T20:33:26.470Z,3.17
2022-08-31T20:38:39.365Z,3.63
2022-08-31T20:43:44.608Z,2.97
2022-08-31T20:49:06.250Z,3.13
2022-08-31T20:54:09.342Z,4.40
2022-08-31T20:59:12.105Z,3.10
2022-08-31T21:04:16.242Z,3.47
2022-08-31T21:09:19.577Z,4.18
2022-08-31T21:14:22.771Z,3.97
2022-08-31T21:19:26.932Z,3.80
2022-08-31T21:24:29.805Z,7.50
2022-08-31T21:29:33.730Z,3.08
2022-08-31T21:34:39.119Z,4.20
2022-08-31T21:39:42.819Z,3.00
2022-08-31T21:44:45.667Z,4.10
2022-08-31T21:49:53.522Z,3.85
2022-08-31T21:54:56.405Z,4.32
2022-08-31T21:59:59.599Z,4.95
2022-08-31T22:05:08.577Z,4.03
2022-08-31T22:10:12.133Z,5.10
2022-08-31T22:15:16.705Z,4.20
2022-08-31T22:30:27.790Z,3.55
2022-08-31T22:35:31.953Z,4.00
2022-08-31T22:40:39.386Z,5.70
2022-08-31T22:45:48.210Z,5.10
2022-08-31T22:50:52.727Z,4.88
2022-08-31T22:55:55.460Z,6.95
2022-08-31T23:00:58.226Z,5.35
2022-08-31T23:06:02.404Z,5.75
2022-08-31T23:11:05.489Z,5.77
2022-08-31T23:16:09.352Z,4.53
2022-08-31T23:21:13.567Z,4.33
2022-08-31T23:26:16.346Z,4.73
2022-08-31T23:31:20.129Z,3.45
2022-08-31T23:36:29.451Z,5.60
2022-08-31T23:41:38.901Z,4.18
2022-08-31T23:46:43.284Z,4.32
2022-08-31T23:51:47.662Z,4.93
2022-08-31T23:56:55.626Z,3.97
